Time;durP1;ratioP1;P1;durP2;ratioP2;P2;SDS_P1;SDS_P2;PMS_P1;PMS_P2;Temp;Humidity;BMP_temperature;BMP_pressure;BME280_temperature;BME280_humidity;BME280_pressure;Samples;Min_cycle;Max_cycle;Signal;HPM_P1;HPM_P2
2023/02/21 02:21:15;;;;;;;14.80;3.50;;;;;;;8.64;78.21;98841.58;680279;1270;138208;-92
2023/02/21 02:36:29;;;;;;;16.10;4.90;;;;;;;8.71;77.96;98839.77;680017;1272;139158;-92
2023/02/21 02:51:34;;;;;;;16.80;3.50;;;;;;;8.63;78.79;98847.75;680008;1273;138339;-90
2023/02/21 03:07:00;;;;;;;18.00;4.90;;;;;;;8.50;79.15;98843.87;679904;1270;137956;-91
2023/02/21 03:22:08;;;;;;;11.00;3.70;;;;;;;8.50;78.17;98840.70;679920;1273;138957;-90
2023/02/21 03:37:42;;;;;;;12.70;3.90;;;;;;;8.54;76.44;98838.73;679691;1273;139257;-93
2023/02/21 03:52:46;;;;;;;18.50;6.10;;;;;;;8.59;76.57;98843.64;679725;1273;138147;-91
2023/02/21 04:07:50;;;;;;;16.60;5.00;;;;;;;8.44;78.42;98863.67;679983;1272;139773;-91
2023/02/21 04:22:54;;;;;;;21.80;5.40;;;;;;;8.20;79.85;98855.79;680263;1271;138057;-92
2023/02/21 04:38:05;;;;;;;21.30;5.00;;;;;;;7.90;84.68;98862.36;680115;1273;138004;-92
2023/02/21 04:53:10;;;;;;;23.00;5.60;;;;;;;7.88;85.30;98877.55;680319;1275;138235;-90
2023/02/21 05:08:16;;;;;;;34.50;9.80;;;;;;;7.75;87.72;98873.06;679752;1273;138183;-91
2023/02/21 05:23:32;;;;;;;25.00;8.40;;;;;;;7.66;90.22;98904.63;680364;1272;138846;-90
2023/02/21 05:38:56;;;;;;;28.50;10.30;;;;;;;7.52;91.64;98915.15;679828;1271;138900;-92
2023/02/21 05:53:59;;;;;;;15.10;5.00;;;;;;;7.48;92.86;98921.92;680035;1272;138354;-93
2023/02/21 06:09:03;;;;;;;20.90;5.90;;;;;;;7.46;94.66;98940.42;680096;1272;138454;-94
2023/02/21 06:24:07;;;;;;;30.60;11.70;;;;;;;7.41;96.56;98956.00;679895;1272;139289;-94
2023/02/21 06:39:13;;;;;;;35.00;10.50;;;;;;;7.47;96.41;98981.17;679729;1272;138106;-89
2023/02/21 06:54:21;;;;;;;61.50;27.20;;;;;;;7.40;97.65;99006.06;679871;1269;138713;-90
2023/02/21 07:09:25;;;;;;;27.10;7.70;;;;;;;7.59;97.28;99033.31;679900;1272;138896;-89
2023/02/21 07:24:31;;;;;;;36.20;14.90;;;;;;;7.69;97.00;99064.19;679974;1272;137005;-90
2023/02/21 07:39:36;;;;;;;27.70;11.90;;;;;;;7.72;97.05;99085.01;680202;1272;139023;-90
2023/02/21 07:54:40;;;;;;;29.00;11.40;;;;;;;7.80;97.34;99108.91;680026;1270;138357;-91
2023/02/21 08:09:43;;;;;;;34.30;14.30;;;;;;;8.02;96.57;99129.98;680117;1269;138393;-91
2023/02/21 08:24:49;;;;;;;41.80;15.30;;;;;;;8.39;95.13;99158.36;679806;1273;139309;-88
2023/02/21 08:39:53;;;;;;;34.90;11.80;;;;;;;8.65;93.74;99184.65;679763;1269;138136;-92
2023/02/21 08:54:57;;;;;;;43.10;15.00;;;;;;;8.67;93.09;99201.31;679820;1272;138731;-88
2023/02/21 09:10:00;;;;;;;40.90;14.10;;;;;;;8.80;92.27;99215.45;679930;1270;137983;-90
2023/02/21 09:30:25;;;;;;;26.70;9.10;;;;;;;9.12;89.95;99239.49;655278;1299;545274;-92
2023/02/21 09:45:36;;;;;;;39.10;14.70;;;;;;;9.63;86.36;99260.27;672015;1274;138163;-91
2023/02/21 10:00:41;;;;;;;28.40;11.60;;;;;;;9.89;83.60;99280.62;670828;1272;138109;-90
2023/02/21 10:16:07;;;;;;;126.30;51.00;;;;;;;10.00;82.66;99301.17;671015;1274;138160;-89
2023/02/21 10:31:30;;;;;;;20.60;8.00;;;;;;;10.08;81.25;99320.75;673400;1261;139004;-93
2023/02/21 10:46:41;;;;;;;28.90;9.90;;;;;;;9.96;83.05;99339.41;672943;1273;138039;-93
2023/02/21 11:01:45;;;;;;;39.70;13.60;;;;;;;9.82;84.01;99361.42;673113;1263;138474;-92
2023/02/21 11:17:23;;;;;;;38.60;11.90;;;;;;;9.62;85.05;99383.65;673390;1263;137970;-91
2023/02/21 11:32:30;;;;;;;74.30;27.50;;;;;;;9.59;86.42;99397.88;675576;1263;139387;-91
2023/02/21 11:47:42;;;;;;;46.10;15.60;;;;;;;9.51;87.43;99410.80;675453;1262;137215;-93
2023/02/21 12:02:57;;;;;;;31.10;11.70;;;;;;;9.50;86.35;99423.77;676130;1261;137940;-91
2023/02/21 12:18:27;;;;;;;90.40;32.50;;;;;;;9.48;86.14;99438.45;675256;1264;138509;-91
2023/02/21 12:33:41;;;;;;;27.00;7.30;;;;;;;9.57;85.57;99452.28;674118;1260;138370;-94
2023/02/21 12:49:15;;;;;;;39.20;14.30;;;;;;;9.51;84.45;99457.17;674131;1262;137129;-92
2023/02/21 13:04:22;;;;;;;30.50;9.80;;;;;;;9.74;81.34;99471.67;673777;1271;138897;-91
2023/02/21 13:19:35;;;;;;;36.30;13.80;;;;;;;9.86;79.86;99477.69;673967;1262;139109;-91
2023/02/21 13:34:46;;;;;;;39.40;12.10;;;;;;;10.00;77.72;99490.83;673000;1261;138426;-89
2023/02/21 13:49:56;;;;;;;47.50;15.20;;;;;;;9.96;77.77;99513.73;672500;1263;138583;-90
2023/02/21 14:05:05;;;;;;;64.10;20.30;;;;;;;9.77;78.14;99528.40;672540;1262;138889;-90
2023/02/21 14:20:16;;;;;;;70.40;27.80;;;;;;;9.81;77.36;99538.56;672180;1262;139236;-88
2023/02/21 14:35:43;;;;;;;64.20;22.70;;;;;;;9.81;77.02;99552.77;672356;1262;138003;-91
2023/02/21 14:51:05;;;;;;;105.50;40.80;;;;;;;9.84;76.68;99568.58;673205;1273;138184;-89
2023/02/21 15:06:17;;;;;;;51.10;16.60;;;;;;;9.88;75.64;99581.77;671815;1259;138360;-90
2023/02/21 15:21:20;;;;;;;77.50;23.00;;;;;;;9.81;75.83;99595.34;672634;1266;138218;-88
2023/02/21 15:36:26;;;;;;;168.50;64.50;;;;;;;9.75;75.11;99618.96;673069;1258;138617;-89
2023/02/21 15:51:30;;;;;;;35.10;13.20;;;;;;;9.73;74.27;99629.99;671869;1262;139336;-88
2023/02/21 16:06:34;;;;;;;51.00;16.20;;;;;;;9.69;74.50;99645.61;671731;1259;138337;-86
2023/02/21 16:21:38;;;;;;;41.00;14.60;;;;;;;9.73;74.67;99673.99;675063;1260;138530;-89
2023/02/21 16:36:42;;;;;;;41.20;14.60;;;;;;;9.56;75.71;99697.05;671622;1262;138532;-90
2023/02/21 16:51:46;;;;;;;58.20;18.80;;;;;;;9.34;75.96;99715.82;672494;1262;138643;-90
2023/02/21 17:06:56;;;;;;;36.50;15.50;;;;;;;9.15;76.03;99736.40;672106;1262;138645;-88
2023/02/21 17:22:00;;;;;;;42.90;17.30;;;;;;;9.07;76.43;99768.19;672204;1263;138695;-89
2023/02/21 17:37:04;;;;;;;36.40;12.90;;;;;;;8.88;78.82;99798.11;673242;1260;139174;-90
2023/02/21 17:52:07;;;;;;;27.20;10.80;;;;;;;8.51;80.78;99814.59;672644;1260;138596;-88
2023/02/21 18:07:10;;;;;;;28.60;10.10;;;;;;;8.35;82.41;99821.65;673099;1256;138639;-90
2023/02/21 18:22:14;;;;;;;252.70;81.90;;;;;;;8.24;82.95;99838.80;674266;1260;138824;-90
2023/02/21 18:37:18;;;;;;;205.10;72.80;;;;;;;8.13;83.48;99861.02;676671;1259;138955;-89
2023/02/21 18:52:22;;;;;;;149.60;53.30;;;;;;;8.09;83.50;99883.79;674916;1264;139712;-89
2023/02/21 19:07:25;;;;;;;48.80;17.40;;;;;;;8.26;83.51;99907.13;674767;1260;139497;-90
2023/02/21 19:22:29;;;;;;;119.00;43.00;;;;;;;7.91;83.36;99951.41;675675;1260;138788;-88
2023/02/21 19:37:34;;;;;;;192.30;71.40;;;;;;;7.62;84.77;99958.89;674218;1262;139279;-88
2023/02/21 19:52:39;;;;;;;94.10;37.90;;;;;;;7.42;85.80;99978.16;672454;1260;139223;-89
2023/02/21 20:07:43;;;;;;;42.10;17.10;;;;;;;7.09;86.41;100004.75;673589;1260;138652;-89
2023/02/21 20:22:48;;;;;;;67.70;31.70;;;;;;;6.85;86.37;100017.05;674395;1263;139313;-84
2023/02/21 20:37:53;;;;;;;67.40;23.20;;;;;;;6.64;87.41;100029.22;674009;1262;138235;-85
2023/02/21 20:52:57;;;;;;;41.70;17.10;;;;;;;6.63;87.19;100039.39;673243;1262;139051;-88
2023/02/21 21:08:01;;;;;;;65.60;18.80;;;;;;;6.59;88.15;100058.86;673848;1257;139133;-89
2023/02/21 21:23:05;;;;;;;30.60;9.30;;;;;;;6.65;89.15;100078.31;672730;1260;139702;-87
2023/02/21 21:38:10;;;;;;;23.90;10.50;;;;;;;6.54;89.17;100100.02;673036;1260;160491;-89
2023/02/21 21:53:15;;;;;;;18.40;5.90;;;;;;;6.38;88.61;100118.73;671852;1259;138534;-87
2023/02/21 22:08:21;;;;;;;16.50;6.50;;;;;;;6.14;88.57;100132.63;673337;1272;137931;-87
2023/02/21 22:23:25;;;;;;;37.20;15.80;;;;;;;5.96;88.13;100140.15;673578;1260;138859;-88
2023/02/21 22:38:29;;;;;;;26.20;14.10;;;;;;;5.70;88.09;100170.20;674183;1259;139008;-87
2023/02/21 22:53:34;;;;;;;36.20;11.30;;;;;;;5.54;87.92;100188.15;676812;1260;139120;-88
2023/02/21 23:08:38;;;;;;;20.50;6.10;;;;;;;5.56;89.20;100214.88;675046;1270;139657;-87
2023/02/21 23:23:41;;;;;;;20.00;7.30;;;;;;;5.67;88.86;100231.15;673693;1260;139413;-88
2023/02/21 23:38:45;;;;;;;15.20;5.10;;;;;;;5.72;88.68;100254.42;674351;1262;138797;-86
2023/02/21 23:53:48;;;;;;;19.30;7.80;;;;;;;5.82;88.93;100270.02;674057;1256;137956;-87
